sensor_id;sensor_type;location;lat;lon;timestamp;pressure;altitude;pressure_sealevel;temperature;humidity
40920;BME280;26652;50.280;19.026;2023-04-07T00:02:27;98254.72;;;3.14;100.00
40920;BME280;26652;50.280;19.026;2023-04-07T00:04:39;98252.50;;;3.11;100.00
40920;BME280;26652;50.280;19.026;2023-04-07T00:06:47;98250.41;;;3.06;100.00
40920;BME280;26652;50.280;19.026;2023-04-07T00:09:09;98248.94;;;3.04;100.00
40920;BME280;26652;50.280;19.026;2023-04-07T00:11:28;98248.37;;;3.19;100.00
40920;BME280;26652;50.280;19.026;2023-04-07T00:13:47;98247.34;;;3.03;100.00
40920;BME280;26652;50.280;19.026;2023-04-07T00:15:57;98241.00;;;2.89;100.00
40920;BME280;26652;50.280;19.026;2023-04-07T00:18:10;98242.06;;;3.06;100.00
40920;BME280;26652;50.280;19.026;2023-04-07T00:20:19;98243.38;;;3.00;100.00
40920;BME280;26652;50.280;19.026;2023-04-07T00:22:34;98234.53;;;3.06;100.00
40920;BME280;26652;50.280;19.026;2023-04-07T00:24:43;98245.06;;;3.19;100.00
40920;BME280;26652;50.280;19.026;2023-04-07T00:26:57;98229.97;;;3.19;100.00
40920;BME280;26652;50.280;19.026;2023-04-07T00:29:05;98227.44;;;3.19;100.00
40920;BME280;26652;50.280;19.026;2023-04-07T00:31:20;98219.13;;;3.18;100.00
40920;BME280;26652;50.280;19.026;2023-04-07T00:33:28;98226.28;;;3.13;100.00
40920;BME280;26652;50.280;19.026;2023-04-07T00:35:46;98227.13;;;3.04;100.00
40920;BME280;26652;50.280;19.026;2023-04-07T00:37:54;98219.84;;;3.01;100.00
40920;BME280;26652;50.280;19.026;2023-04-07T00:40:09;98222.88;;;3.05;100.00
40920;BME280;26652;50.280;19.026;2023-04-07T00:42:25;98211.78;;;2.98;100.00
40920;BME280;26652;50.280;19.026;2023-04-07T00:44:39;98220.09;;;2.98;100.00
40920;BME280;26652;50.280;19.026;2023-04-07T00:46:48;98214.69;;;2.83;100.00
40920;BME280;26652;50.280;19.026;2023-04-07T00:49:01;98215.19;;;3.06;100.00
40920;BME280;26652;50.280;19.026;2023-04-07T00:51:10;98222.47;;;3.09;100.00
40920;BME280;26652;50.280;19.026;2023-04-07T00:53:24;98214.34;;;3.15;100.00
40920;BME280;26652;50.280;19.026;2023-04-07T00:55:33;98209.56;;;3.22;100.00
40920;BME280;26652;50.280;19.026;2023-04-07T00:57:47;98201.91;;;3.23;100.00
40920;BME280;26652;50.280;19.026;2023-04-07T00:59:56;98209.03;;;3.28;100.00
40920;BME280;26652;50.280;19.026;2023-04-07T01:02:17;98206.28;;;3.21;100.00
40920;BME280;26652;50.280;19.026;2023-04-07T01:07:21;98197.94;;;3.21;100.00
40920;BME280;26652;50.280;19.026;2023-04-07T01:09:36;98203.66;;;3.13;100.00
40920;BME280;26652;50.280;19.026;2023-04-07T01:11:58;98197.69;;;3.14;100.00
40920;BME280;26652;50.280;19.026;2023-04-07T01:14:13;98201.13;;;3.13;100.00
40920;BME280;26652;50.280;19.026;2023-04-07T01:16:31;98194.44;;;3.04;100.00
40920;BME280;26652;50.280;19.026;2023-04-07T01:18:40;98189.13;;;3.07;100.00
40920;BME280;26652;50.280;19.026;2023-04-07T01:20:52;98189.28;;;2.96;100.00
40920;BME280;26652;50.280;19.026;2023-04-07T01:23:05;98193.66;;;2.94;100.00
40920;BME280;26652;50.280;19.026;2023-04-07T01:30:10;98194.87;;;2.71;100.00
40920;BME280;26652;50.280;19.026;2023-04-07T01:32:18;98196.19;;;2.84;100.00
40920;BME280;26652;50.280;19.026;2023-04-07T01:34:33;98190.88;;;2.87;100.00
40920;BME280;26652;50.280;19.026;2023-04-07T01:36:40;98202.78;;;2.85;100.00
40920;BME280;26652;50.280;19.026;2023-04-07T01:38:51;98200.28;;;2.95;100.00
40920;BME280;26652;50.280;19.026;2023-04-07T01:40:57;98194.06;;;2.89;100.00
40920;BME280;26652;50.280;19.026;2023-04-07T01:43:12;98187.19;;;2.82;100.00
40920;BME280;26652;50.280;19.026;2023-04-07T01:45:18;98200.16;;;2.87;100.00
40920;BME280;26652;50.280;19.026;2023-04-07T01:47:30;98185.47;;;2.92;100.00
40920;BME280;26652;50.280;19.026;2023-04-07T01:49:38;98185.84;;;2.87;100.00
40920;BME280;26652;50.280;19.026;2023-04-07T01:51:50;98180.31;;;2.84;100.00
40920;BME280;26652;50.280;19.026;2023-04-07T01:53:55;98179.41;;;2.66;100.00
40920;BME280;26652;50.280;19.026;2023-04-07T01:56:05;98180.56;;;2.81;100.00
40920;BME280;26652;50.280;19.026;2023-04-07T01:58:13;98177.53;;;2.87;100.00
40920;BME280;26652;50.280;19.026;2023-04-07T02:00:24;98181.09;;;2.84;100.00
40920;BME280;26652;50.280;19.026;2023-04-07T02:02:30;98181.25;;;2.73;100.00
40920;BME280;26652;50.280;19.026;2023-04-07T02:04:55;98187.97;;;2.82;100.00
40920;BME280;26652;50.280;19.026;2023-04-07T02:07:21;98170.78;;;2.87;100.00
40920;BME280;26652;50.280;19.026;2023-04-07T02:09:57;98168.38;;;2.95;100.00
40920;BME280;26652;50.280;19.026;2023-04-07T02:12:06;98173.31;;;2.87;100.00
40920;BME280;26652;50.280;19.026;2023-04-07T02:14:21;98180.81;;;2.97;100.00
40920;BME280;26652;50.280;19.026;2023-04-07T02:16:30;98184.00;;;2.99;100.00
40920;BME280;26652;50.280;19.026;2023-04-07T02:18:40;98178.56;;;3.04;100.00
40920;BME280;26652;50.280;19.026;2023-04-07T02:20:45;98171.25;;;3.10;100.00
40920;BME280;26652;50.280;19.026;2023-04-07T02:23:00;98182.53;;;2.97;100.00
40920;BME280;26652;50.280;19.026;2023-04-07T02:25:29;98175.81;;;2.87;100.00
40920;BME280;26652;50.280;19.026;2023-04-07T02:27:41;98180.69;;;2.99;100.00
40920;BME280;26652;50.280;19.026;2023-04-07T02:30:04;98180.94;;;3.05;100.00
40920;BME280;26652;50.280;19.026;2023-04-07T02:32:17;98189.53;;;3.03;100.00
40920;BME280;26652;50.280;19.026;2023-04-07T02:34:35;98180.13;;;3.05;100.00
40920;BME280;26652;50.280;19.026;2023-04-07T02:36:47;98190.19;;;3.05;100.00
40920;BME280;26652;50.280;19.026;2023-04-07T02:38:56;98186.03;;;3.13;100.00
40920;BME280;26652;50.280;19.026;2023-04-07T02:41:12;98194.56;;;3.03;100.00
40920;BME280;26652;50.280;19.026;2023-04-07T02:43:22;98189.50;;;3.12;100.00
40920;BME280;26652;50.280;19.026;2023-04-07T02:45:35;98184.66;;;2.91;100.00
40920;BME280;26652;50.280;19.026;2023-04-07T02:47:49;98188.59;;;3.04;100.00
40920;BME280;26652;50.280;19.026;2023-04-07T02:50:00;98184.31;;;3.14;100.00
40920;BME280;26652;50.280;19.026;2023-04-07T02:52:13;98178.75;;;3.20;100.00
40920;BME280;26652;50.280;19.026;2023-04-07T02:54:30;98163.00;;;3.18;100.00
40920;BME280;26652;50.280;19.026;2023-04-07T02:56:38;98169.44;;;3.30;100.00
40920;BME280;26652;50.280;19.026;2023-04-07T02:58:50;98171.41;;;3.36;100.00
40920;BME280;26652;50.280;19.026;2023-04-07T03:00:58;98176.22;;;3.20;100.00
40920;BME280;26652;50.280;19.026;2023-04-07T03:03:15;98162.19;;;3.27;100.00
40920;BME280;26652;50.280;19.026;2023-04-07T03:05:24;98165.53;;;3.18;100.00
40920;BME280;26652;50.280;19.026;2023-04-07T03:07:42;98163.19;;;3.07;100.00
40920;BME280;26652;50.280;19.026;2023-04-07T03:09:50;98167.25;;;3.17;100.00
40920;BME280;26652;50.280;19.026;2023-04-07T03:12:02;98162.50;;;3.14;100.00
40920;BME280;26652;50.280;19.026;2023-04-07T03:14:26;98163.16;;;3.16;100.00
40920;BME280;26652;50.280;19.026;2023-04-07T03:16:38;98165.00;;;3.14;100.00
40920;BME280;26652;50.280;19.026;2023-04-07T03:18:50;98163.84;;;3.09;100.00
40920;BME280;26652;50.280;19.026;2023-04-07T03:21:04;98163.19;;;3.07;100.00
40920;BME280;26652;50.280;19.026;2023-04-07T03:23:13;98157.41;;;2.97;100.00
40920;BME280;26652;50.280;19.026;2023-04-07T03:25:44;98163.34;;;3.05;100.00
40920;BME280;26652;50.280;19.026;2023-04-07T03:27:56;98161.22;;;3.01;100.00
40920;BME280;26652;50.280;19.026;2023-04-07T03:30:10;98155.72;;;2.87;100.00
40920;BME280;26652;50.280;19.026;2023-04-07T03:32:16;98164.16;;;2.96;100.00
40920;BME280;26652;50.280;19.026;2023-04-07T03:34:33;98150.00;;;2.95;100.00
40920;BME280;26652;50.280;19.026;2023-04-07T03:36:38;98158.59;;;3.02;100.00
40920;BME280;26652;50.280;19.026;2023-04-07T03:38:52;98158.38;;;2.76;100.00
40920;BME280;26652;50.280;19.026;2023-04-07T03:41:01;98154.75;;;2.98;100.00
40920;BME280;26652;50.280;19.026;2023-04-07T03:43:21;98159.41;;;2.93;100.00
40920;BME280;26652;50.280;19.026;2023-04-07T03:45:45;98154.38;;;2.93;100.00
40920;BME280;26652;50.280;19.026;2023-04-07T03:47:54;98153.03;;;2.99;100.00
40920;BME280;26652;50.280;19.026;2023-04-07T03:50:03;98153.44;;;2.94;100.00
40920;BME280;26652;50.280;19.026;2023-04-07T03:52:21;98152.22;;;3.08;100.00
40920;BME280;26652;50.280;19.026;2023-04-07T03:54:35;98161.28;;;3.18;100.00
40920;BME280;26652;50.280;19.026;2023-04-07T03:56:53;98155.84;;;3.23;100.00
40920;BME280;26652;50.280;19.026;2023-04-07T03:59:08;98175.12;;;3.32;100.00
40920;BME280;26652;50.280;19.026;2023-04-07T04:01:21;98169.38;;;3.12;100.00
40920;BME280;26652;50.280;19.026;2023-04-07T04:03:33;98154.41;;;3.20;100.00
40920;BME280;26652;50.280;19.026;2023-04-07T04:05:42;98157.72;;;3.21;100.00
40920;BME280;26652;50.280;19.026;2023-04-07T04:07:51;98158.91;;;3.17;100.00
40920;BME280;26652;50.280;19.026;2023-04-07T04:10:05;98163.41;;;3.13;100.00
40920;BME280;26652;50.280;19.026;2023-04-07T04:12:13;98163.06;;;3.08;100.00
40920;BME280;26652;50.280;19.026;2023-04-07T04:14:25;98158.81;;;3.09;100.00
40920;BME280;26652;50.280;19.026;2023-04-07T04:16:43;98154.06;;;3.06;100.00
40920;BME280;26652;50.280;19.026;2023-04-07T04:19:01;98157.03;;;3.19;100.00
40920;BME280;26652;50.280;19.026;2023-04-07T04:21:13;98161.00;;;3.21;100.00
40920;BME280;26652;50.280;19.026;2023-04-07T04:23:28;98147.13;;;3.17;100.00
40920;BME280;26652;50.280;19.026;2023-04-07T04:25:37;98159.56;;;3.19;100.00
40920;BME280;26652;50.280;19.026;2023-04-07T04:27:50;98166.13;;;3.02;100.00
40920;BME280;26652;50.280;19.026;2023-04-07T04:29:59;98161.09;;;3.02;100.00
40920;BME280;26652;50.280;19.026;2023-04-07T04:32:16;98165.31;;;3.11;100.00
40920;BME280;26652;50.280;19.026;2023-04-07T04:34:31;98163.41;;;3.13;100.00
40920;BME280;26652;50.280;19.026;2023-04-07T04:36:45;98169.38;;;3.12;100.00
40920;BME280;26652;50.280;19.026;2023-04-07T04:39:12;98170.66;;;3.26;100.00
40920;BME280;26652;50.280;19.026;2023-04-07T04:41:30;98160.16;;;3.03;100.00
40920;BME280;26652;50.280;19.026;2023-04-07T04:43:38;98164.13;;;3.06;100.00
40920;BME280;26652;50.280;19.026;2023-04-07T04:45:49;98164.53;;;3.01;100.00
40920;BME280;26652;50.280;19.026;2023-04-07T04:48:13;98163.59;;;3.02;100.00
40920;BME280;26652;50.280;19.026;2023-04-07T04:50:27;98175.78;;;3.07;100.00
40920;BME280;26652;50.280;19.026;2023-04-07T04:52:35;98175.84;;;3.15;100.00
40920;BME280;26652;50.280;19.026;2023-04-07T04:54:49;98177.00;;;2.93;100.00
40920;BME280;26652;50.280;19.026;2023-04-07T04:56:57;98180.09;;;3.14;100.00
40920;BME280;26652;50.280;19.026;2023-04-07T04:59:15;98171.25;;;3.10;100.00
40920;BME280;26652;50.280;19.026;2023-04-07T05:01:23;98175.97;;;3.23;100.00
40920;BME280;26652;50.280;19.026;2023-04-07T05:03:35;98181.88;;;3.04;100.00
40920;BME280;26652;50.280;19.026;2023-04-07T05:05:46;98176.56;;;3.07;100.00
40920;BME280;26652;50.280;19.026;2023-04-07T05:07:57;98174.25;;;3.14;100.00
40920;BME280;26652;50.280;19.026;2023-04-07T05:10:06;98172.84;;;3.11;100.00
40920;BME280;26652;50.280;19.026;2023-04-07T05:12:17;98177.69;;;3.22;100.00
40920;BME280;26652;50.280;19.026;2023-04-07T05:14:26;98173.19;;;3.26;100.00
40920;BME280;26652;50.280;19.026;2023-04-07T05:16:47;98171.87;;;3.22;100.00
40920;BME280;26652;50.280;19.026;2023-04-07T05:18:55;98173.97;;;3.26;100.00
40920;BME280;26652;50.280;19.026;2023-04-07T05:21:20;98179.78;;;3.27;100.00
40920;BME280;26652;50.280;19.026;2023-04-07T05:23:29;98174.88;;;2.98;100.00
40920;BME280;26652;50.280;19.026;2023-04-07T05:25:47;98179.25;;;2.86;100.00
40920;BME280;26652;50.280;19.026;2023-04-07T05:27:56;98184.00;;;2.99;100.00
40920;BME280;26652;50.280;19.026;2023-04-07T05:30:07;98173.34;;;3.15;100.00
40920;BME280;26652;50.280;19.026;2023-04-07T05:32:14;98167.25;;;3.17;100.00
40920;BME280;26652;50.280;19.026;2023-04-07T05:34:31;98169.06;;;3.25;100.00
40920;BME280;26652;50.280;19.026;2023-04-07T05:36:45;98171.53;;;3.07;100.00
40920;BME280;26652;50.280;19.026;2023-04-07T05:39:04;98170.03;;;3.14;100.00
40920;BME280;26652;50.280;19.026;2023-04-07T05:41:12;98173.84;;;3.18;100.00
40920;BME280;26652;50.280;19.026;2023-04-07T05:43:30;98174.84;;;3.08;100.00
40920;BME280;26652;50.280;19.026;2023-04-07T05:45:38;98181.91;;;3.22;100.00
40920;BME280;26652;50.280;19.026;2023-04-07T05:47:56;98171.87;;;3.22;100.00
40920;BME280;26652;50.280;19.026;2023-04-07T05:50:04;98184.28;;;3.33;100.00
40920;BME280;26652;50.280;19.026;2023-04-07T05:52:15;98183.66;;;3.21;100.00
40920;BME280;26652;50.280;19.026;2023-04-07T05:54:33;98189.88;;;3.17;100.00
40920;BME280;26652;50.280;19.026;2023-04-07T05:56:46;98188.28;;;3.16;100.00
40920;BME280;26652;50.280;19.026;2023-04-07T05:59:01;98194.09;;;3.17;100.00
40920;BME280;26652;50.280;19.026;2023-04-07T06:01:14;98191.72;;;3.25;100.00
40920;BME280;26652;50.280;19.026;2023-04-07T06:03:33;98190.12;;;3.24;100.00
40920;BME280;26652;50.280;19.026;2023-04-07T06:05:49;98194.56;;;3.40;100.00
40920;BME280;26652;50.280;19.026;2023-04-07T06:07:58;98193.59;;;3.50;100.00
40920;BME280;26652;50.280;19.026;2023-04-07T06:10:27;98189.00;;;3.46;100.00
40920;BME280;26652;50.280;19.026;2023-04-07T06:12:52;98191.97;;;3.59;100.00
40920;BME280;26652;50.280;19.026;2023-04-07T06:15:03;98188.06;;;3.47;100.00
40920;BME280;26652;50.280;19.026;2023-04-07T06:17:19;98177.50;;;3.34;100.00
40920;BME280;26652;50.280;19.026;2023-04-07T06:19:34;98171.09;;;3.49;100.00
40920;BME280;26652;50.280;19.026;2023-04-07T06:21:49;98174.59;;;3.66;100.00
40920;BME280;26652;50.280;19.026;2023-04-07T06:24:09;98181.50;;;3.64;100.00
40920;BME280;26652;50.280;19.026;2023-04-07T06:26:16;98180.28;;;3.68;100.00
40920;BME280;26652;50.280;19.026;2023-04-07T06:28:36;98177.78;;;3.68;100.00
40920;BME280;26652;50.280;19.026;2023-04-07T06:30:51;98179.09;;;3.72;100.00
40920;BME280;26652;50.280;19.026;2023-04-07T06:33:09;98175.91;;;3.70;100.00
40920;BME280;26652;50.280;19.026;2023-04-07T06:35:38;98180.25;;;3.77;100.00
40920;BME280;26652;50.280;19.026;2023-04-07T06:37:49;98173.41;;;3.70;100.00
40920;BME280;26652;50.280;19.026;2023-04-07T06:39:58;98169.09;;;3.52;100.00
40920;BME280;26652;50.280;19.026;2023-04-07T06:42:15;98162.59;;;3.59;100.00
40920;BME280;26652;50.280;19.026;2023-04-07T06:44:27;98168.16;;;3.53;100.00
40920;BME280;26652;50.280;19.026;2023-04-07T06:46:41;98166.91;;;3.67;100.00
40920;BME280;26652;50.280;19.026;2023-04-07T06:49:01;98172.75;;;3.68;100.00
40920;BME280;26652;50.280;19.026;2023-04-07T06:51:15;98169.44;;;3.67;100.00
40920;BME280;26652;50.280;19.026;2023-04-07T06:53:24;98157.78;;;3.66;100.00
40920;BME280;26652;50.280;19.026;2023-04-07T06:55:42;98186.53;;;3.91;100.00
40920;BME280;26652;50.280;19.026;2023-04-07T06:57:51;98183.31;;;3.99;100.00
40920;BME280;26652;50.280;19.026;2023-04-07T07:00:04;98193.34;;;3.81;100.00
40920;BME280;26652;50.280;19.026;2023-04-07T07:02:12;98190.97;;;3.79;100.00
40920;BME280;26652;50.280;19.026;2023-04-07T07:04:23;98187.41;;;3.72;100.00
40920;BME280;26652;50.280;19.026;2023-04-07T07:06:36;98181.53;;;3.81;100.00
40920;BME280;26652;50.280;19.026;2023-04-07T07:08:50;98194.31;;;3.98;100.00
40920;BME280;26652;50.280;19.026;2023-04-07T07:11:14;98199.34;;;3.98;100.00
40920;BME280;26652;50.280;19.026;2023-04-07T07:13:42;98189.78;;;4.01;100.00
40920;BME280;26652;50.280;19.026;2023-04-07T07:15:56;98193.31;;;4.08;100.00
40920;BME280;26652;50.280;19.026;2023-04-07T07:18:18;98189.50;;;4.22;100.00
40920;BME280;26652;50.280;19.026;2023-04-07T07:20:24;98191.66;;;4.17;100.00
40920;BME280;26652;50.280;19.026;2023-04-07T07:22:48;98191.34;;;4.20;100.00
40920;BME280;26652;50.280;19.026;2023-04-07T07:24:57;98200.00;;;4.35;100.00
40920;BME280;26652;50.280;19.026;2023-04-07T07:27:08;98197.91;;;4.31;100.00
40920;BME280;26652;50.280;19.026;2023-04-07T07:29:19;98196.03;;;4.33;99.61
40920;BME280;26652;50.280;19.026;2023-04-07T07:31:39;98193.16;;;4.27;98.59
40920;BME280;26652;50.280;19.026;2023-04-07T07:33:48;98201.66;;;4.26;99.03
40920;BME280;26652;50.280;19.026;2023-04-07T07:36:01;98196.84;;;4.33;99.59
40920;BME280;26652;50.280;19.026;2023-04-07T07:38:11;98205.56;;;4.39;99.76
40920;BME280;26652;50.280;19.026;2023-04-07T07:40:22;98204.88;;;4.19;100.00
40920;BME280;26652;50.280;19.026;2023-04-07T07:42:30;98206.84;;;4.25;100.00
40920;BME280;26652;50.280;19.026;2023-04-07T07:44:52;98214.03;;;4.20;100.00
40920;BME280;26652;50.280;19.026;2023-04-07T07:47:00;98210.56;;;4.03;100.00
40920;BME280;26652;50.280;19.026;2023-04-07T07:49:17;98213.75;;;4.05;100.00
40920;BME280;26652;50.280;19.026;2023-04-07T07:51:52;98205.91;;;4.08;100.00
40920;BME280;26652;50.280;19.026;2023-04-07T07:54:09;98209.13;;;4.18;100.00
40920;BME280;26652;50.280;19.026;2023-04-07T07:56:17;98225.03;;;4.19;100.00
40920;BME280;26652;50.280;19.026;2023-04-07T07:58:29;98222.09;;;4.06;100.00
40920;BME280;26652;50.280;19.026;2023-04-07T08:00:38;98219.06;;;4.02;100.00
40920;BME280;26652;50.280;19.026;2023-04-07T08:02:49;98196.22;;;4.13;100.00
40920;BME280;26652;50.280;19.026;2023-04-07T08:05:01;98209.44;;;4.33;100.00
40920;BME280;26652;50.280;19.026;2023-04-07T08:07:20;98217.06;;;4.41;100.00
40920;BME280;26652;50.280;19.026;2023-04-07T08:09:39;98204.69;;;4.30;100.00
40920;BME280;26652;50.280;19.026;2023-04-07T08:11:53;98191.72;;;4.25;100.00
40920;BME280;26652;50.280;19.026;2023-04-07T08:14:01;98193.44;;;4.24;100.00
40920;BME280;26652;50.280;19.026;2023-04-07T08:16:13;98185.19;;;4.14;100.00
40920;BME280;26652;50.280;19.026;2023-04-07T08:18:25;98174.53;;;4.20;100.00
40920;BME280;26652;50.280;19.026;2023-04-07T08:20:42;98182.09;;;4.38;100.00
40920;BME280;26652;50.280;19.026;2023-04-07T08:22:52;98191.38;;;4.38;100.00
40920;BME280;26652;50.280;19.026;2023-04-07T08:25:06;98193.38;;;4.34;100.00
40920;BME280;26652;50.280;19.026;2023-04-07T08:27:13;98195.69;;;4.45;100.00
40920;BME280;26652;50.280;19.026;2023-04-07T08:29:27;98202.75;;;4.42;100.00
40920;BME280;26652;50.280;19.026;2023-04-07T08:31:35;98205.31;;;4.32;100.00
40920;BME280;26652;50.280;19.026;2023-04-07T08:33:48;98212.31;;;4.38;100.00
40920;BME280;26652;50.280;19.026;2023-04-07T08:35:58;98215.84;;;4.45;100.00
40920;BME280;26652;50.280;19.026;2023-04-07T08:38:11;98208.16;;;4.47;100.00
40920;BME280;26652;50.280;19.026;2023-04-07T08:40:20;98205.97;;;4.52;100.00
40920;BME280;26652;50.280;19.026;2023-04-07T08:42:42;98202.37;;;4.54;100.00
40920;BME280;26652;50.280;19.026;2023-04-07T08:44:50;98199.72;;;4.38;100.00
40920;BME280;26652;50.280;19.026;2023-04-07T08:47:04;98202.44;;;4.45;100.00
40920;BME280;26652;50.280;19.026;2023-04-07T08:49:11;98197.63;;;4.51;100.00
40920;BME280;26652;50.280;19.026;2023-04-07T08:51:30;98202.81;;;4.68;100.00
40920;BME280;26652;50.280;19.026;2023-04-07T08:53:47;98203.75;;;4.67;99.58
40920;BME280;26652;50.280;19.026;2023-04-07T08:55:56;98195.69;;;4.45;100.00
40920;BME280;26652;50.280;19.026;2023-04-07T08:58:03;98211.88;;;4.60;100.00
40920;BME280;26652;50.280;19.026;2023-04-07T09:00:20;98205.97;;;4.52;100.00
40920;BME280;26652;50.280;19.026;2023-04-07T09:02:36;98211.03;;;4.52;100.00
40920;BME280;26652;50.280;19.026;2023-04-07T09:04:47;98201.87;;;4.51;100.00
40920;BME280;26652;50.280;19.026;2023-04-07T09:07:01;98203.69;;;4.41;100.00
40920;BME280;26652;50.280;19.026;2023-04-07T09:09:12;98202.75;;;4.42;100.00
40920;BME280;26652;50.280;19.026;2023-04-07T09:11:22;98205.97;;;4.52;100.00
40920;BME280;26652;50.280;19.026;2023-04-07T09:13:33;98196.41;;;4.55;100.00
40920;BME280;26652;50.280;19.026;2023-04-07T09:15:41;98205.91;;;4.62;99.83
40920;BME280;26652;50.280;19.026;2023-04-07T09:17:57;98194.69;;;4.56;99.60
40920;BME280;26652;50.280;19.026;2023-04-07T09:20:06;98193.31;;;4.62;99.86
40920;BME280;26652;50.280;19.026;2023-04-07T09:22:42;98189.19;;;4.60;99.95
40920;BME280;26652;50.280;19.026;2023-04-07T09:24:49;98178.78;;;4.38;100.00
40920;BME280;26652;50.280;19.026;2023-04-07T09:27:12;98182.28;;;4.63;100.00
40920;BME280;26652;50.280;19.026;2023-04-07T09:29:21;98188.69;;;4.57;100.00
40920;BME280;26652;50.280;19.026;2023-04-07T09:31:46;98200.28;;;4.68;100.00
40920;BME280;26652;50.280;19.026;2023-04-07T09:33:56;98190.84;;;4.70;100.00
40920;BME280;26652;50.280;19.026;2023-04-07T09:36:08;98190.94;;;4.60;100.00
40920;BME280;26652;50.280;19.026;2023-04-07T09:38:17;98193.66;;;4.49;100.00
40920;BME280;26652;50.280;19.026;2023-04-07T09:40:29;98188.28;;;4.44;100.00
40920;BME280;26652;50.280;19.026;2023-04-07T09:42:47;98190.12;;;4.59;100.00
40920;BME280;26652;50.280;19.026;2023-04-07T09:45:01;98194.06;;;4.80;100.00
40920;BME280;26652;50.280;19.026;2023-04-07T09:47:11;98186.50;;;4.80;99.60
40920;BME280;26652;50.280;19.026;2023-04-07T09:49:25;98182.41;;;4.79;100.00
40920;BME280;26652;50.280;19.026;2023-04-07T09:51:34;98181.75;;;4.77;100.00
40920;BME280;26652;50.280;19.026;2023-04-07T09:53:50;98190.72;;;4.97;100.00
40920;BME280;26652;50.280;19.026;2023-04-07T09:55:55;98193.25;;;4.97;99.81
40920;BME280;26652;50.280;19.026;2023-04-07T09:58:07;98185.19;;;4.93;99.75
40920;BME280;26652;50.280;19.026;2023-04-07T10:00:23;98178.78;;;4.99;100.00
40920;BME280;26652;50.280;19.026;2023-04-07T10:02:34;98182.53;;;4.95;100.00
40920;BME280;26652;50.280;19.026;2023-04-07T10:04:42;98179.66;;;4.90;100.00
40920;BME280;26652;50.280;19.026;2023-04-07T10:06:51;98183.25;;;4.87;100.00
40920;BME280;26652;50.280;19.026;2023-04-07T10:08:58;98191.81;;;4.95;100.00
40920;BME280;26652;50.280;19.026;2023-04-07T10:11:11;98187.16;;;4.82;100.00
40920;BME280;26652;50.280;19.026;2023-04-07T10:13:21;98193.72;;;4.75;100.00
40920;BME280;26652;50.280;19.026;2023-04-07T10:15:33;98188.31;;;4.87;100.00
40920;BME280;26652;50.280;19.026;2023-04-07T10:17:42;98193.59;;;5.02;100.00
40920;BME280;26652;50.280;19.026;2023-04-07T10:19:58;98193.25;;;4.97;100.00
40920;BME280;26652;50.280;19.026;2023-04-07T10:22:06;98189.44;;;4.93;100.00
40920;BME280;26652;50.280;19.026;2023-04-07T10:27:15;98190.06;;;4.69;100.00
40920;BME280;26652;50.280;19.026;2023-04-07T10:29:25;98181.91;;;4.75;100.00
40920;BME280;26652;50.280;19.026;2023-04-07T10:31:36;98192.06;;;4.83;100.00
40920;BME280;26652;50.280;19.026;2023-04-07T10:33:52;98184.41;;;4.93;100.00
40920;BME280;26652;50.280;19.026;2023-04-07T10:36:07;98192.06;;;4.83;100.00
40920;BME280;26652;50.280;19.026;2023-04-07T10:38:22;98195.00;;;4.79;100.00
40920;BME280;26652;50.280;19.026;2023-04-07T10:40:37;98196.50;;;4.89;100.00
40920;BME280;26652;50.280;19.026;2023-04-07T10:42:50;98191.47;;;4.89;100.00
40920;BME280;26652;50.280;19.026;2023-04-07T10:45:09;98205.38;;;4.93;100.00
40920;BME280;26652;50.280;19.026;2023-04-07T10:47:23;98199.88;;;4.98;100.00
40920;BME280;26652;50.280;19.026;2023-04-07T10:49:37;98195.28;;;4.93;100.00
40920;BME280;26652;50.280;19.026;2023-04-07T10:54:20;98198.44;;;4.96;100.00
40920;BME280;26652;50.280;19.026;2023-04-07T10:57:09;98199.53;;;4.93;100.00
40920;BME280;26652;50.280;19.026;2023-04-07T10:59:15;98201.03;;;5.04;100.00
40920;BME280;26652;50.280;19.026;2023-04-07T11:01:28;98203.03;;;5.00;100.00
40920;BME280;26652;50.280;19.026;2023-04-07T11:03:36;98190.88;;;4.96;100.00
40920;BME280;26652;50.280;19.026;2023-04-07T11:05:48;98191.81;;;4.95;100.00
40920;BME280;26652;50.280;19.026;2023-04-07T11:07:55;98191.53;;;4.98;100.00
40920;BME280;26652;50.280;19.026;2023-04-07T11:10:30;98194.59;;;5.09;100.00
40920;BME280;26652;50.280;19.026;2023-04-07T11:12:36;98194.31;;;5.12;100.00
40920;BME280;26652;50.280;19.026;2023-04-07T11:14:44;98196.78;;;5.04;100.00
40920;BME280;26652;50.280;19.026;2023-04-07T11:16:52;98187.28;;;4.98;100.00
40920;BME280;26652;50.280;19.026;2023-04-07T11:19:01;98176.50;;;4.88;100.00
40920;BME280;26652;50.280;19.026;2023-04-07T11:21:08;98182.72;;;5.02;100.00
40920;BME280;26652;50.280;19.026;2023-04-07T11:23:20;98185.03;;;4.95;100.00
40920;BME280;26652;50.280;19.026;2023-04-07T11:25:30;98177.34;;;4.97;100.00
40920;BME280;26652;50.280;19.026;2023-04-07T11:27:46;98179.34;;;5.19;100.00
40920;BME280;26652;50.280;19.026;2023-04-07T11:29:52;98180.16;;;5.28;100.00
40920;BME280;26652;50.280;19.026;2023-04-07T11:32:03;98176.66;;;5.20;100.00
40920;BME280;26652;50.280;19.026;2023-04-07T11:34:13;98174.97;;;5.29;100.00
40920;BME280;26652;50.280;19.026;2023-04-07T11:36:40;98181.41;;;5.23;100.00
40920;BME280;26652;50.280;19.026;2023-04-07T11:38:46;98174.97;;;5.29;100.00
40920;BME280;26652;50.280;19.026;2023-04-07T11:41:14;98173.19;;;5.13;100.00
40920;BME280;26652;50.280;19.026;2023-04-07T11:43:44;98171.75;;;5.11;100.00
40920;BME280;26652;50.280;19.026;2023-04-07T11:46:16;98169.53;;;5.08;100.00
40920;BME280;26652;50.280;19.026;2023-04-07T11:48:30;98173.97;;;5.22;100.00
40920;BME280;26652;50.280;19.026;2023-04-07T11:50:39;98173.13;;;5.39;100.00
40920;BME280;26652;50.280;19.026;2023-04-07T11:52:48;98172.97;;;5.41;100.00